createdAt,value
2024-01-24T00:03:19.900Z,84.0
2024-01-24T00:16:19.861Z,84.0
2024-01-24T00:29:19.858Z,86.0
2024-01-24T00:42:19.911Z,85.0
2024-01-24T00:55:19.899Z,86.0
2024-01-24T01:08:19.903Z,86.0
2024-01-24T01:21:19.919Z,86.0
2024-01-24T01:34:19.961Z,87.0
2024-01-24T01:47:19.896Z,87.0
2024-01-24T02:00:19.909Z,88.0
2024-01-24T02:13:19.945Z,85.0
2024-01-24T02:26:19.917Z,86.0
2024-01-24T02:39:19.996Z,85.0
2024-01-24T02:52:19.972Z,86.0
2024-01-24T03:05:19.974Z,87.0
2024-01-24T03:18:20.126Z,87.0
2024-01-24T03:31:19.970Z,87.0
2024-01-24T03:44:20.015Z,87.0
2024-01-24T03:57:20.030Z,86.0
2024-01-24T04:10:20.041Z,87.0
2024-01-24T04:23:20.037Z,87.0
2024-01-24T04:36:20.060Z,88.0
2024-01-24T04:49:26.084Z,88.0
2024-01-24T05:02:20.064Z,88.0
2024-01-24T05:15:20.101Z,89.0
2024-01-24T05:28:20.074Z,88.0
2024-01-24T05:41:20.067Z,89.0
2024-01-24T05:54:20.161Z,89.0
2024-01-24T06:07:20.111Z,89.0
2024-01-24T06:20:20.103Z,89.0
2024-01-24T06:34:20.163Z,89.0
2024-01-24T06:48:20.148Z,90.0
2024-01-24T07:02:20.146Z,90.0
2024-01-24T07:17:20.159Z,89.0
2024-01-24T07:31:20.179Z,89.0
2024-01-24T07:45:20.317Z,90.0
2024-01-24T07:59:20.215Z,89.0
2024-01-24T08:13:20.222Z,87.0
2024-01-24T08:27:20.296Z,81.0
2024-01-24T08:41:20.246Z,77.0
2024-01-24T08:55:20.273Z,74.0
2024-01-24T09:09:20.229Z,70.0
2024-01-24T09:23:20.255Z,66.0
2024-01-24T09:37:20.271Z,65.0
2024-01-24T09:51:20.283Z,64.0
2024-01-24T10:05:20.324Z,65.0
2024-01-24T10:19:20.300Z,66.0
2024-01-24T10:33:20.560Z,67.0
2024-01-24T10:47:20.456Z,68.0
2024-01-24T11:01:20.448Z,70.0
2024-01-24T11:15:20.471Z,69.0
2024-01-24T11:29:20.375Z,67.0
2024-01-24T11:43:20.354Z,67.0
2024-01-24T11:57:20.499Z,67.0
2024-01-24T12:11:20.403Z,66.0
2024-01-24T12:25:20.431Z,65.0
2024-01-24T12:39:20.801Z,66.0
2024-01-24T12:54:20.674Z,64.0
2024-01-24T13:09:20.496Z,65.0
2024-01-24T13:24:20.537Z,64.0
2024-01-24T13:38:20.455Z,63.0
2024-01-24T13:52:20.476Z,63.0
2024-01-24T14:06:20.514Z,62.0
2024-01-24T14:20:20.526Z,61.0
2024-01-24T14:34:20.614Z,62.0
2024-01-24T14:48:20.600Z,63.0
2024-01-24T15:02:20.614Z,65.0
2024-01-24T15:16:20.805Z,65.0
2024-01-24T15:30:20.850Z,67.0
2024-01-24T15:44:20.624Z,71.0
2024-01-24T15:59:20.666Z,77.0
2024-01-24T16:13:20.971Z,80.0
2024-01-24T16:27:21.255Z,80.0
2024-01-24T16:41:20.610Z,82.0
2024-01-24T16:54:20.941Z,82.0
2024-01-24T17:07:20.618Z,83.0
2024-01-24T17:20:20.681Z,84.0
2024-01-24T17:33:21.237Z,84.0
2024-01-24T17:46:20.670Z,86.0
2024-01-24T17:59:20.717Z,85.0
2024-01-24T18:12:20.700Z,85.0
2024-01-24T18:26:22.062Z,86.0
2024-01-24T18:39:21.975Z,86.0
2024-01-24T18:52:20.805Z,87.0
2024-01-24T19:05:23.576Z,87.0
2024-01-24T19:18:22.864Z,87.0
2024-01-24T19:31:22.229Z,88.0
2024-01-24T19:44:22.319Z,89.0
2024-01-24T19:57:22.264Z,89.0
2024-01-24T20:10:20.790Z,89.0
2024-01-24T20:23:22.144Z,89.0
2024-01-24T20:36:22.354Z,89.0
2024-01-24T20:49:23.244Z,88.0
2024-01-24T21:02:20.954Z,89.0
2024-01-24T21:15:21.252Z,89.0
2024-01-24T21:28:22.191Z,89.0
2024-01-24T21:41:22.184Z,89.0
2024-01-24T21:54:20.865Z,90.0
2024-01-24T22:07:22.208Z,89.0
2024-01-24T22:20:21.573Z,90.0
2024-01-24T22:33:20.962Z,90.0
2024-01-24T22:46:21.498Z,90.0
2024-01-24T22:59:21.946Z,90.0
2024-01-24T23:12:21.777Z,90.0
2024-01-24T23:25:21.440Z,91.0
2024-01-24T23:38:20.946Z,91.0
2024-01-24T23:51:21.067Z,91.0
